sensor_id;sensor_type;location;lat;lon;timestamp;P1;durP1;ratioP1;P2;durP2;ratioP2
42146;SDS011;27815;43.410;11.852;2023-05-20T00:01:19;3.95;;;2.17;;
42146;SDS011;27815;43.410;11.852;2023-05-20T00:05:22;3.45;;;2.03;;
42146;SDS011;27815;43.410;11.852;2023-05-20T00:09:25;4.22;;;2.25;;
42146;SDS011;27815;43.410;11.852;2023-05-20T00:13:28;4.13;;;2.30;;
42146;SDS011;27815;43.410;11.852;2023-05-20T00:17:31;4.10;;;2.08;;
42146;SDS011;27815;43.410;11.852;2023-05-20T00:21:34;3.67;;;1.88;;
42146;SDS011;27815;43.410;11.852;2023-05-20T00:25:37;3.70;;;2.35;;
42146;SDS011;27815;43.410;11.852;2023-05-20T00:29:40;3.22;;;2.13;;
42146;SDS011;27815;43.410;11.852;2023-05-20T00:33:43;3.13;;;2.13;;
42146;SDS011;27815;43.410;11.852;2023-05-20T00:37:46;6.22;;;2.25;;
42146;SDS011;27815;43.410;11.852;2023-05-20T00:41:49;6.60;;;1.80;;
42146;SDS011;27815;43.410;11.852;2023-05-20T00:45:52;3.53;;;2.20;;
42146;SDS011;27815;43.410;11.852;2023-05-20T00:49:55;4.75;;;2.40;;
42146;SDS011;27815;43.410;11.852;2023-05-20T00:54:00;3.72;;;2.17;;
42146;SDS011;27815;43.410;11.852;2023-05-20T00:58:03;3.58;;;1.92;;
42146;SDS011;27815;43.410;11.852;2023-05-20T01:02:07;7.30;;;2.30;;
42146;SDS011;27815;43.410;11.852;2023-05-20T01:06:10;3.83;;;1.90;;
42146;SDS011;27815;43.410;11.852;2023-05-20T01:10:13;4.85;;;2.40;;
42146;SDS011;27815;43.410;11.852;2023-05-20T01:14:16;4.40;;;2.25;;
42146;SDS011;27815;43.410;11.852;2023-05-20T01:18:22;4.07;;;2.17;;
42146;SDS011;27815;43.410;11.852;2023-05-20T01:22:27;4.18;;;2.22;;
42146;SDS011;27815;43.410;11.852;2023-05-20T01:26:31;3.40;;;2.08;;
42146;SDS011;27815;43.410;11.852;2023-05-20T01:30:36;3.85;;;2.20;;
42146;SDS011;27815;43.410;11.852;2023-05-20T01:34:48;5.13;;;2.33;;
42146;SDS011;27815;43.410;11.852;2023-05-20T01:38:53;2.40;;;1.58;;
42146;SDS011;27815;43.410;11.852;2023-05-20T01:42:57;3.97;;;2.30;;
42146;SDS011;27815;43.410;11.852;2023-05-20T01:47:01;3.70;;;2.25;;
42146;SDS011;27815;43.410;11.852;2023-05-20T01:51:04;4.05;;;2.38;;
42146;SDS011;27815;43.410;11.852;2023-05-20T01:55:07;4.72;;;2.50;;
42146;SDS011;27815;43.410;11.852;2023-05-20T01:59:11;3.50;;;1.92;;
42146;SDS011;27815;43.410;11.852;2023-05-20T02:03:15;4.65;;;2.33;;
42146;SDS011;27815;43.410;11.852;2023-05-20T02:07:18;4.18;;;2.00;;
42146;SDS011;27815;43.410;11.852;2023-05-20T02:11:24;3.05;;;1.80;;
42146;SDS011;27815;43.410;11.852;2023-05-20T02:15:29;4.72;;;2.25;;
42146;SDS011;27815;43.410;11.852;2023-05-20T02:19:32;4.45;;;2.22;;
42146;SDS011;27815;43.410;11.852;2023-05-20T02:23:35;7.65;;;2.22;;
42146;SDS011;27815;43.410;11.852;2023-05-20T02:27:39;4.18;;;2.08;;
42146;SDS011;27815;43.410;11.852;2023-05-20T02:31:42;3.35;;;2.00;;
42146;SDS011;27815;43.410;11.852;2023-05-20T02:35:45;6.63;;;2.25;;
42146;SDS011;27815;43.410;11.852;2023-05-20T02:39:48;3.40;;;2.20;;
42146;SDS011;27815;43.410;11.852;2023-05-20T02:43:51;4.30;;;1.92;;
42146;SDS011;27815;43.410;11.852;2023-05-20T02:47:55;3.00;;;1.83;;
42146;SDS011;27815;43.410;11.852;2023-05-20T02:52:00;2.83;;;1.70;;
42146;SDS011;27815;43.410;11.852;2023-05-20T02:56:03;3.42;;;2.05;;
42146;SDS011;27815;43.410;11.852;2023-05-20T03:00:07;3.90;;;2.00;;
42146;SDS011;27815;43.410;11.852;2023-05-20T03:04:13;4.20;;;2.20;;
42146;SDS011;27815;43.410;11.852;2023-05-20T03:08:17;3.10;;;1.88;;
42146;SDS011;27815;43.410;11.852;2023-05-20T03:12:22;3.55;;;1.80;;
42146;SDS011;27815;43.410;11.852;2023-05-20T03:16:27;3.20;;;1.80;;
42146;SDS011;27815;43.410;11.852;2023-05-20T03:20:32;4.85;;;1.85;;
42146;SDS011;27815;43.410;11.852;2023-05-20T03:24:38;2.65;;;1.67;;
42146;SDS011;27815;43.410;11.852;2023-05-20T03:28:42;3.40;;;1.85;;
42146;SDS011;27815;43.410;11.852;2023-05-20T03:32:45;2.55;;;1.60;;
42146;SDS011;27815;43.410;11.852;2023-05-20T03:36:50;3.47;;;2.00;;
42146;SDS011;27815;43.410;11.852;2023-05-20T03:40:53;3.10;;;2.08;;
42146;SDS011;27815;43.410;11.852;2023-05-20T03:44:56;3.13;;;2.00;;
42146;SDS011;27815;43.410;11.852;2023-05-20T03:49:06;4.38;;;2.20;;
42146;SDS011;27815;43.410;11.852;2023-05-20T03:53:09;5.25;;;2.00;;
42146;SDS011;27815;43.410;11.852;2023-05-20T03:57:15;2.87;;;1.80;;
42146;SDS011;27815;43.410;11.852;2023-05-20T04:01:18;2.30;;;1.63;;
42146;SDS011;27815;43.410;11.852;2023-05-20T04:05:22;3.85;;;1.98;;
42146;SDS011;27815;43.410;11.852;2023-05-20T04:09:26;3.75;;;2.10;;
42146;SDS011;27815;43.410;11.852;2023-05-20T04:13:29;3.67;;;2.03;;
42146;SDS011;27815;43.410;11.852;2023-05-20T04:17:32;2.75;;;1.70;;
42146;SDS011;27815;43.410;11.852;2023-05-20T04:21:35;3.20;;;2.08;;
42146;SDS011;27815;43.410;11.852;2023-05-20T04:25:42;3.13;;;1.83;;
42146;SDS011;27815;43.410;11.852;2023-05-20T04:29:46;4.03;;;2.45;;
42146;SDS011;27815;43.410;11.852;2023-05-20T04:33:51;4.13;;;1.95;;
42146;SDS011;27815;43.410;11.852;2023-05-20T04:38:01;3.47;;;1.90;;
42146;SDS011;27815;43.410;11.852;2023-05-20T04:42:05;4.70;;;2.38;;
42146;SDS011;27815;43.410;11.852;2023-05-20T04:46:24;2.67;;;1.73;;
42146;SDS011;27815;43.410;11.852;2023-05-20T04:50:30;3.03;;;1.85;;
42146;SDS011;27815;43.410;11.852;2023-05-20T04:54:33;4.05;;;2.28;;
42146;SDS011;27815;43.410;11.852;2023-05-20T04:58:36;4.13;;;2.47;;
42146;SDS011;27815;43.410;11.852;2023-05-20T05:02:39;3.83;;;2.15;;
42146;SDS011;27815;43.410;11.852;2023-05-20T05:06:43;4.65;;;2.72;;
42146;SDS011;27815;43.410;11.852;2023-05-20T05:10:46;6.50;;;3.00;;
42146;SDS011;27815;43.410;11.852;2023-05-20T05:14:49;5.78;;;2.60;;
42146;SDS011;27815;43.410;11.852;2023-05-20T05:18:52;4.72;;;2.63;;
42146;SDS011;27815;43.410;11.852;2023-05-20T05:22:56;4.75;;;2.72;;
42146;SDS011;27815;43.410;11.852;2023-05-20T05:26:59;6.90;;;2.88;;
42146;SDS011;27815;43.410;11.852;2023-05-20T05:31:02;4.47;;;2.35;;
42146;SDS011;27815;43.410;11.852;2023-05-20T05:35:05;5.22;;;2.88;;
42146;SDS011;27815;43.410;11.852;2023-05-20T05:39:09;4.70;;;2.28;;
42146;SDS011;27815;43.410;11.852;2023-05-20T05:43:14;4.38;;;2.53;;
42146;SDS011;27815;43.410;11.852;2023-05-20T05:47:20;4.45;;;2.65;;
42146;SDS011;27815;43.410;11.852;2023-05-20T05:51:23;4.95;;;3.10;;
42146;SDS011;27815;43.410;11.852;2023-05-20T05:55:30;4.47;;;2.50;;
42146;SDS011;27815;43.410;11.852;2023-05-20T05:59:34;5.05;;;3.33;;
42146;SDS011;27815;43.410;11.852;2023-05-20T06:03:38;5.40;;;3.10;;
42146;SDS011;27815;43.410;11.852;2023-05-20T06:07:41;5.38;;;3.17;;
42146;SDS011;27815;43.410;11.852;2023-05-20T06:11:49;7.72;;;3.60;;
42146;SDS011;27815;43.410;11.852;2023-05-20T06:15:52;5.82;;;3.60;;
42146;SDS011;27815;43.410;11.852;2023-05-20T06:19:55;6.25;;;3.53;;
42146;SDS011;27815;43.410;11.852;2023-05-20T06:23:58;6.28;;;4.05;;
42146;SDS011;27815;43.410;11.852;2023-05-20T06:28:01;5.78;;;3.72;;
42146;SDS011;27815;43.410;11.852;2023-05-20T06:32:05;6.47;;;4.10;;
42146;SDS011;27815;43.410;11.852;2023-05-20T06:36:11;6.28;;;4.05;;
42146;SDS011;27815;43.410;11.852;2023-05-20T06:40:14;6.40;;;4.03;;
42146;SDS011;27815;43.410;11.852;2023-05-20T06:44:18;7.20;;;3.90;;
42146;SDS011;27815;43.410;11.852;2023-05-20T06:48:51;6.88;;;4.15;;
42146;SDS011;27815;43.410;11.852;2023-05-20T06:53:01;6.57;;;3.67;;
42146;SDS011;27815;43.410;11.852;2023-05-20T06:57:17;5.63;;;3.65;;
42146;SDS011;27815;43.410;11.852;2023-05-20T07:01:23;5.07;;;3.42;;
42146;SDS011;27815;43.410;11.852;2023-05-20T07:05:39;6.47;;;3.42;;
42146;SDS011;27815;43.410;11.852;2023-05-20T07:09:44;5.80;;;3.60;;
42146;SDS011;27815;43.410;11.852;2023-05-20T07:14:05;4.90;;;2.97;;
42146;SDS011;27815;43.410;11.852;2023-05-20T07:18:09;5.57;;;3.58;;
42146;SDS011;27815;43.410;11.852;2023-05-20T07:22:13;4.57;;;3.17;;
42146;SDS011;27815;43.410;11.852;2023-05-20T07:27:02;4.38;;;2.80;;
42146;SDS011;27815;43.410;11.852;2023-05-20T07:31:50;3.33;;;2.30;;
42146;SDS011;27815;43.410;11.852;2023-05-20T07:36:27;7.47;;;2.97;;
42146;SDS011;27815;43.410;11.852;2023-05-20T07:40:34;5.60;;;3.20;;
42146;SDS011;27815;43.410;11.852;2023-05-20T07:44:38;5.82;;;3.13;;
42146;SDS011;27815;43.410;11.852;2023-05-20T07:48:41;7.35;;;3.47;;
42146;SDS011;27815;43.410;11.852;2023-05-20T07:52:45;4.38;;;2.78;;
42146;SDS011;27815;43.410;11.852;2023-05-20T07:57:03;5.63;;;3.20;;
42146;SDS011;27815;43.410;11.852;2023-05-20T08:01:09;6.72;;;2.88;;
42146;SDS011;27815;43.410;11.852;2023-05-20T08:09:21;4.32;;;2.58;;
42146;SDS011;27815;43.410;11.852;2023-05-20T08:13:28;4.50;;;2.90;;
42146;SDS011;27815;43.410;11.852;2023-05-20T08:17:31;6.43;;;3.17;;
42146;SDS011;27815;43.410;11.852;2023-05-20T08:21:37;6.50;;;3.00;;
42146;SDS011;27815;43.410;11.852;2023-05-20T08:25:44;5.30;;;2.83;;
42146;SDS011;27815;43.410;11.852;2023-05-20T08:29:51;4.22;;;2.90;;
42146;SDS011;27815;43.410;11.852;2023-05-20T08:33:56;4.00;;;2.65;;
42146;SDS011;27815;43.410;11.852;2023-05-20T08:38:08;3.58;;;2.45;;
42146;SDS011;27815;43.410;11.852;2023-05-20T08:42:13;3.92;;;2.83;;
42146;SDS011;27815;43.410;11.852;2023-05-20T08:46:44;4.30;;;2.65;;
42146;SDS011;27815;43.410;11.852;2023-05-20T08:50:49;3.78;;;2.65;;
42146;SDS011;27815;43.410;11.852;2023-05-20T08:54:54;4.85;;;3.10;;
42146;SDS011;27815;43.410;11.852;2023-05-20T08:58:59;4.80;;;2.92;;
42146;SDS011;27815;43.410;11.852;2023-05-20T09:03:17;5.55;;;3.65;;
42146;SDS011;27815;43.410;11.852;2023-05-20T09:07:29;4.90;;;3.40;;
42146;SDS011;27815;43.410;11.852;2023-05-20T09:11:57;6.28;;;3.42;;
42146;SDS011;27815;43.410;11.852;2023-05-20T09:16:10;5.85;;;3.88;;
42146;SDS011;27815;43.410;11.852;2023-05-20T09:20:24;5.00;;;3.25;;
42146;SDS011;27815;43.410;11.852;2023-05-20T09:24:32;4.38;;;3.17;;
42146;SDS011;27815;43.410;11.852;2023-05-20T09:28:36;5.15;;;3.75;;
42146;SDS011;27815;43.410;11.852;2023-05-20T09:32:40;5.32;;;4.15;;
42146;SDS011;27815;43.410;11.852;2023-05-20T09:36:44;6.25;;;4.43;;
42146;SDS011;27815;43.410;11.852;2023-05-20T09:40:53;5.22;;;4.50;;
42146;SDS011;27815;43.410;11.852;2023-05-20T09:45:05;5.93;;;4.90;;
42146;SDS011;27815;43.410;11.852;2023-05-20T09:49:10;6.18;;;5.57;;
42146;SDS011;27815;43.410;11.852;2023-05-20T09:53:15;6.63;;;6.05;;
42146;SDS011;27815;43.410;11.852;2023-05-20T09:57:20;5.97;;;5.47;;
42146;SDS011;27815;43.410;11.852;2023-05-20T10:01:28;6.63;;;6.00;;
42146;SDS011;27815;43.410;11.852;2023-05-20T10:05:36;6.80;;;6.20;;
42146;SDS011;27815;43.410;11.852;2023-05-20T10:27:41;8.27;;;7.57;;
42146;SDS011;27815;43.410;11.852;2023-05-20T10:31:52;8.68;;;7.97;;
42146;SDS011;27815;43.410;11.852;2023-05-20T10:35:59;7.85;;;7.18;;
42146;SDS011;27815;43.410;11.852;2023-05-20T10:40:07;6.88;;;6.28;;
42146;SDS011;27815;43.410;11.852;2023-05-20T10:44:12;7.45;;;6.75;;
42146;SDS011;27815;43.410;11.852;2023-05-20T10:48:19;9.80;;;6.80;;
42146;SDS011;27815;43.410;11.852;2023-05-20T10:52:25;6.78;;;6.18;;
42146;SDS011;27815;43.410;11.852;2023-05-20T10:56:29;7.38;;;6.68;;
42146;SDS011;27815;43.410;11.852;2023-05-20T11:00:35;7.20;;;6.55;;
42146;SDS011;27815;43.410;11.852;2023-05-20T11:04:40;7.10;;;6.50;;
42146;SDS011;27815;43.410;11.852;2023-05-20T11:08:45;7.75;;;6.65;;
42146;SDS011;27815;43.410;11.852;2023-05-20T11:12:52;6.43;;;5.82;;
42146;SDS011;27815;43.410;11.852;2023-05-20T11:16:56;7.22;;;6.50;;
42146;SDS011;27815;43.410;11.852;2023-05-20T11:21:01;6.85;;;6.15;;
42146;SDS011;27815;43.410;11.852;2023-05-20T11:25:10;7.03;;;5.80;;
42146;SDS011;27815;43.410;11.852;2023-05-20T11:29:14;6.85;;;5.57;;
42146;SDS011;27815;43.410;11.852;2023-05-20T11:33:19;6.05;;;5.55;;
42146;SDS011;27815;43.410;11.852;2023-05-20T11:37:29;6.65;;;6.07;;
42146;SDS011;27815;43.410;11.852;2023-05-20T11:41:34;7.13;;;5.55;;
42146;SDS011;27815;43.410;11.852;2023-05-20T11:45:41;6.60;;;6.00;;
42146;SDS011;27815;43.410;11.852;2023-05-20T11:49:55;6.55;;;5.90;;
42146;SDS011;27815;43.410;11.852;2023-05-20T11:54:02;6.40;;;5.63;;
42146;SDS011;27815;43.410;11.852;2023-05-20T11:58:10;6.53;;;5.18;;
42146;SDS011;27815;43.410;11.852;2023-05-20T12:02:20;6.20;;;5.60;;
42146;SDS011;27815;43.410;11.852;2023-05-20T12:06:24;5.82;;;5.22;;
42146;SDS011;27815;43.410;11.852;2023-05-20T12:10:27;5.68;;;5.18;;
42146;SDS011;27815;43.410;11.852;2023-05-20T12:14:34;5.70;;;5.20;;
42146;SDS011;27815;43.410;11.852;2023-05-20T12:18:50;7.50;;;4.97;;
42146;SDS011;27815;43.410;11.852;2023-05-20T12:23:12;5.70;;;5.10;;
42146;SDS011;27815;43.410;11.852;2023-05-20T12:27:30;5.13;;;4.63;;
42146;SDS011;27815;43.410;11.852;2023-05-20T12:31:47;5.75;;;5.25;;
42146;SDS011;27815;43.410;11.852;2023-05-20T12:35:51;6.63;;;5.68;;
42146;SDS011;27815;43.410;11.852;2023-05-20T12:39:55;5.70;;;5.18;;
42146;SDS011;27815;43.410;11.852;2023-05-20T12:43:59;6.15;;;5.55;;
42146;SDS011;27815;43.410;11.852;2023-05-20T12:48:02;6.90;;;5.57;;
42146;SDS011;27815;43.410;11.852;2023-05-20T12:52:07;6.07;;;5.57;;
42146;SDS011;27815;43.410;11.852;2023-05-20T12:56:23;5.22;;;4.70;;
42146;SDS011;27815;43.410;11.852;2023-05-20T13:00:27;5.68;;;5.18;;
42146;SDS011;27815;43.410;11.852;2023-05-20T13:04:33;5.70;;;5.10;;
42146;SDS011;27815;43.410;11.852;2023-05-20T13:08:39;5.57;;;5.03;;
42146;SDS011;27815;43.410;11.852;2023-05-20T13:12:42;4.93;;;4.53;;
42146;SDS011;27815;43.410;11.852;2023-05-20T13:16:48;6.33;;;5.00;;
42146;SDS011;27815;43.410;11.852;2023-05-20T13:20:58;6.25;;;4.82;;
42146;SDS011;27815;43.410;11.852;2023-05-20T13:25:01;5.57;;;5.07;;
42146;SDS011;27815;43.410;11.852;2023-05-20T13:29:05;5.60;;;5.10;;
42146;SDS011;27815;43.410;11.852;2023-05-20T13:33:10;6.03;;;5.40;;
42146;SDS011;27815;43.410;11.852;2023-05-20T13:37:16;5.97;;;5.38;;
42146;SDS011;27815;43.410;11.852;2023-05-20T13:41:29;5.97;;;4.90;;
42146;SDS011;27815;43.410;11.852;2023-05-20T13:45:32;5.53;;;4.80;;
42146;SDS011;27815;43.410;11.852;2023-05-20T13:49:35;6.53;;;5.90;;
42146;SDS011;27815;43.410;11.852;2023-05-20T13:53:38;5.70;;;5.20;;
42146;SDS011;27815;43.410;11.852;2023-05-20T13:57:42;6.05;;;5.50;;
42146;SDS011;27815;43.410;11.852;2023-05-20T14:01:52;6.00;;;5.40;;
42146;SDS011;27815;43.410;11.852;2023-05-20T14:05:56;5.15;;;4.72;;
42146;SDS011;27815;43.410;11.852;2023-05-20T14:10:05;7.22;;;4.55;;
42146;SDS011;27815;43.410;11.852;2023-05-20T14:14:15;7.18;;;4.65;;
42146;SDS011;27815;43.410;11.852;2023-05-20T14:22:32;4.68;;;4.20;;
42146;SDS011;27815;43.410;11.852;2023-05-20T14:26:35;4.50;;;4.07;;
42146;SDS011;27815;43.410;11.852;2023-05-20T14:30:38;4.88;;;4.47;;
42146;SDS011;27815;43.410;11.852;2023-05-20T14:34:41;5.68;;;4.43;;
42146;SDS011;27815;43.410;11.852;2023-05-20T14:38:44;6.00;;;4.60;;
42146;SDS011;27815;43.410;11.852;2023-05-20T14:42:49;5.13;;;4.63;;
42146;SDS011;27815;43.410;11.852;2023-05-20T14:46:52;5.10;;;4.60;;
42146;SDS011;27815;43.410;11.852;2023-05-20T14:50:56;5.20;;;4.68;;
42146;SDS011;27815;43.410;11.852;2023-05-20T14:54:59;5.03;;;4.60;;
42146;SDS011;27815;43.410;11.852;2023-05-20T14:59:07;5.65;;;4.78;;
42146;SDS011;27815;43.410;11.852;2023-05-20T15:03:13;4.38;;;3.97;;
42146;SDS011;27815;43.410;11.852;2023-05-20T15:07:17;5.15;;;3.95;;
42146;SDS011;27815;43.410;11.852;2023-05-20T15:11:20;5.00;;;4.18;;
42146;SDS011;27815;43.410;11.852;2023-05-20T15:15:23;4.85;;;4.40;;
42146;SDS011;27815;43.410;11.852;2023-05-20T15:19:26;4.90;;;4.22;;
42146;SDS011;27815;43.410;11.852;2023-05-20T15:23:30;6.40;;;4.15;;
42146;SDS011;27815;43.410;11.852;2023-05-20T15:27:33;4.72;;;4.25;;
42146;SDS011;27815;43.410;11.852;2023-05-20T15:31:36;6.45;;;4.13;;
42146;SDS011;27815;43.410;11.852;2023-05-20T15:35:39;6.85;;;4.60;;
42146;SDS011;27815;43.410;11.852;2023-05-20T15:39:42;5.35;;;4.47;;
42146;SDS011;27815;43.410;11.852;2023-05-20T15:43:46;5.32;;;4.72;;
42146;SDS011;27815;43.410;11.852;2023-05-20T15:47:49;5.47;;;4.38;;
42146;SDS011;27815;43.410;11.852;2023-05-20T15:51:52;4.97;;;4.47;;
42146;SDS011;27815;43.410;11.852;2023-05-20T15:56:05;4.95;;;4.47;;
42146;SDS011;27815;43.410;11.852;2023-05-20T16:00:09;4.60;;;4.13;;
42146;SDS011;27815;43.410;11.852;2023-05-20T16:04:22;5.60;;;3.67;;
42146;SDS011;27815;43.410;11.852;2023-05-20T16:08:28;5.57;;;4.03;;
42146;SDS011;27815;43.410;11.852;2023-05-20T16:12:32;5.07;;;4.15;;
42146;SDS011;27815;43.410;11.852;2023-05-20T16:16:35;5.97;;;4.07;;
42146;SDS011;27815;43.410;11.852;2023-05-20T16:20:39;4.78;;;4.07;;
42146;SDS011;27815;43.410;11.852;2023-05-20T16:24:42;4.93;;;4.00;;
42146;SDS011;27815;43.410;11.852;2023-05-20T16:28:45;4.25;;;3.72;;
42146;SDS011;27815;43.410;11.852;2023-05-20T16:32:48;4.03;;;3.42;;
42146;SDS011;27815;43.410;11.852;2023-05-20T16:36:52;4.15;;;3.45;;
42146;SDS011;27815;43.410;11.852;2023-05-20T16:41:04;7.28;;;3.88;;
42146;SDS011;27815;43.410;11.852;2023-05-20T16:45:08;5.07;;;4.07;;
42146;SDS011;27815;43.410;11.852;2023-05-20T16:49:11;5.40;;;3.72;;
42146;SDS011;27815;43.410;11.852;2023-05-20T16:53:14;5.38;;;3.70;;
42146;SDS011;27815;43.410;11.852;2023-05-20T16:57:20;4.38;;;3.97;;
42146;SDS011;27815;43.410;11.852;2023-05-20T17:01:23;4.25;;;3.70;;
42146;SDS011;27815;43.410;11.852;2023-05-20T17:05:28;4.18;;;3.47;;
42146;SDS011;27815;43.410;11.852;2023-05-20T17:09:31;5.05;;;3.80;;
42146;SDS011;27815;43.410;11.852;2023-05-20T17:17:46;3.25;;;2.95;;
42146;SDS011;27815;43.410;11.852;2023-05-20T17:21:49;6.00;;;3.65;;
42146;SDS011;27815;43.410;11.852;2023-05-20T17:25:53;3.55;;;3.25;;
42146;SDS011;27815;43.410;11.852;2023-05-20T17:29:55;4.05;;;3.28;;
42146;SDS011;27815;43.410;11.852;2023-05-20T17:34:00;4.13;;;3.72;;
42146;SDS011;27815;43.410;11.852;2023-05-20T17:38:14;4.13;;;3.72;;
42146;SDS011;27815;43.410;11.852;2023-05-20T17:42:17;4.13;;;3.25;;
42146;SDS011;27815;43.410;11.852;2023-05-20T17:46:20;5.07;;;3.83;;
42146;SDS011;27815;43.410;11.852;2023-05-20T17:50:23;4.72;;;3.78;;
42146;SDS011;27815;43.410;11.852;2023-05-20T17:54:28;5.65;;;5.15;;
42146;SDS011;27815;43.410;11.852;2023-05-20T17:58:31;5.05;;;3.92;;
42146;SDS011;27815;43.410;11.852;2023-05-20T18:02:35;4.45;;;4.00;;
42146;SDS011;27815;43.410;11.852;2023-05-20T18:06:39;4.40;;;3.70;;
42146;SDS011;27815;43.410;11.852;2023-05-20T18:10:43;5.22;;;3.88;;
42146;SDS011;27815;43.410;11.852;2023-05-20T18:14:46;5.18;;;3.90;;
42146;SDS011;27815;43.410;11.852;2023-05-20T18:18:49;4.35;;;3.95;;
42146;SDS011;27815;43.410;11.852;2023-05-20T18:22:53;5.38;;;4.03;;
42146;SDS011;27815;43.410;11.852;2023-05-20T18:26:59;5.50;;;3.78;;
42146;SDS011;27815;43.410;11.852;2023-05-20T18:31:02;5.50;;;3.80;;
42146;SDS011;27815;43.410;11.852;2023-05-20T18:35:07;4.25;;;3.53;;
42146;SDS011;27815;43.410;11.852;2023-05-20T18:39:11;5.20;;;3.80;;
42146;SDS011;27815;43.410;11.852;2023-05-20T18:43:17;5.70;;;4.07;;
42146;SDS011;27815;43.410;11.852;2023-05-20T18:47:19;5.68;;;3.97;;
42146;SDS011;27815;43.410;11.852;2023-05-20T18:51:23;7.43;;;4.10;;
42146;SDS011;27815;43.410;11.852;2023-05-20T18:55:28;7.32;;;3.85;;
42146;SDS011;27815;43.410;11.852;2023-05-20T18:59:31;4.72;;;3.53;;
42146;SDS011;27815;43.410;11.852;2023-05-20T19:03:34;4.53;;;3.55;;
42146;SDS011;27815;43.410;11.852;2023-05-20T19:07:38;5.00;;;3.60;;
42146;SDS011;27815;43.410;11.852;2023-05-20T19:11:41;5.95;;;4.38;;
42146;SDS011;27815;43.410;11.852;2023-05-20T19:15:44;4.85;;;3.80;;
42146;SDS011;27815;43.410;11.852;2023-05-20T19:19:47;5.35;;;3.65;;
42146;SDS011;27815;43.410;11.852;2023-05-20T19:23:50;4.88;;;3.97;;
42146;SDS011;27815;43.410;11.852;2023-05-20T19:27:53;5.00;;;4.03;;
42146;SDS011;27815;43.410;11.852;2023-05-20T19:31:56;4.60;;;3.50;;
42146;SDS011;27815;43.410;11.852;2023-05-20T19:36:00;7.20;;;4.18;;
42146;SDS011;27815;43.410;11.852;2023-05-20T19:40:03;5.55;;;3.97;;
42146;SDS011;27815;43.410;11.852;2023-05-20T19:44:06;5.47;;;3.75;;
42146;SDS011;27815;43.410;11.852;2023-05-20T19:48:10;5.28;;;3.63;;
42146;SDS011;27815;43.410;11.852;2023-05-20T19:52:13;4.85;;;3.90;;
42146;SDS011;27815;43.410;11.852;2023-05-20T19:56:16;4.97;;;4.00;;
42146;SDS011;27815;43.410;11.852;2023-05-20T20:00:22;6.75;;;4.15;;
42146;SDS011;27815;43.410;11.852;2023-05-20T20:04:25;4.80;;;4.10;;
42146;SDS011;27815;43.410;11.852;2023-05-20T20:08:28;4.90;;;3.63;;
42146;SDS011;27815;43.410;11.852;2023-05-20T20:12:33;5.70;;;3.80;;
42146;SDS011;27815;43.410;11.852;2023-05-20T20:16:40;4.75;;;3.88;;
42146;SDS011;27815;43.410;11.852;2023-05-20T20:20:46;5.10;;;4.07;;
42146;SDS011;27815;43.410;11.852;2023-05-20T20:24:49;4.88;;;3.53;;
42146;SDS011;27815;43.410;11.852;2023-05-20T20:28:52;4.90;;;3.83;;
42146;SDS011;27815;43.410;11.852;2023-05-20T20:32:55;6.32;;;3.83;;
42146;SDS011;27815;43.410;11.852;2023-05-20T20:36:58;5.80;;;4.05;;
42146;SDS011;27815;43.410;11.852;2023-05-20T20:41:04;5.32;;;3.88;;
42146;SDS011;27815;43.410;11.852;2023-05-20T20:45:07;6.78;;;3.78;;
42146;SDS011;27815;43.410;11.852;2023-05-20T20:49:10;4.10;;;3.60;;
42146;SDS011;27815;43.410;11.852;2023-05-20T20:53:14;4.25;;;3.47;;
42146;SDS011;27815;43.410;11.852;2023-05-20T20:57:18;4.13;;;3.65;;
42146;SDS011;27815;43.410;11.852;2023-05-20T21:01:23;5.13;;;3.40;;
42146;SDS011;27815;43.410;11.852;2023-05-20T21:05:26;4.53;;;3.90;;
42146;SDS011;27815;43.410;11.852;2023-05-20T21:09:30;5.00;;;3.92;;
42146;SDS011;27815;43.410;11.852;2023-05-20T21:13:33;7.40;;;3.67;;
42146;SDS011;27815;43.410;11.852;2023-05-20T21:17:38;4.97;;;3.45;;
42146;SDS011;27815;43.410;11.852;2023-05-20T21:21:41;6.70;;;4.00;;
42146;SDS011;27815;43.410;11.852;2023-05-20T21:25:44;5.53;;;4.25;;
42146;SDS011;27815;43.410;11.852;2023-05-20T21:29:47;4.80;;;3.70;;
42146;SDS011;27815;43.410;11.852;2023-05-20T21:33:51;4.80;;;3.83;;
42146;SDS011;27815;43.410;11.852;2023-05-20T21:37:55;4.15;;;3.63;;
42146;SDS011;27815;43.410;11.852;2023-05-20T21:41:58;4.78;;;3.72;;
42146;SDS011;27815;43.410;11.852;2023-05-20T21:46:01;6.85;;;4.00;;
42146;SDS011;27815;43.410;11.852;2023-05-20T21:50:04;4.43;;;3.55;;
42146;SDS011;27815;43.410;11.852;2023-05-20T21:54:08;6.07;;;3.83;;
42146;SDS011;27815;43.410;11.852;2023-05-20T21:58:11;4.78;;;3.85;;
42146;SDS011;27815;43.410;11.852;2023-05-20T22:02:14;5.25;;;4.35;;
42146;SDS011;27815;43.410;11.852;2023-05-20T22:06:18;4.35;;;3.83;;
42146;SDS011;27815;43.410;11.852;2023-05-20T22:10:22;5.22;;;4.28;;
42146;SDS011;27815;43.410;11.852;2023-05-20T22:14:25;4.88;;;3.90;;
42146;SDS011;27815;43.410;11.852;2023-05-20T22:18:30;4.72;;;3.65;;
42146;SDS011;27815;43.410;11.852;2023-05-20T22:22:33;5.07;;;4.53;;
42146;SDS011;27815;43.410;11.852;2023-05-20T22:26:37;6.07;;;3.95;;
42146;SDS011;27815;43.410;11.852;2023-05-20T22:30:40;5.50;;;4.13;;
42146;SDS011;27815;43.410;11.852;2023-05-20T22:34:43;4.97;;;3.65;;
42146;SDS011;27815;43.410;11.852;2023-05-20T22:38:47;9.02;;;4.55;;
42146;SDS011;27815;43.410;11.852;2023-05-20T22:42:50;5.28;;;3.80;;
42146;SDS011;27815;43.410;11.852;2023-05-20T22:46:53;6.22;;;4.25;;
42146;SDS011;27815;43.410;11.852;2023-05-20T22:50:56;5.93;;;4.13;;
42146;SDS011;27815;43.410;11.852;2023-05-20T22:55:01;5.25;;;3.88;;
42146;SDS011;27815;43.410;11.852;2023-05-20T22:59:04;4.65;;;4.07;;
42146;SDS011;27815;43.410;11.852;2023-05-20T23:03:07;6.45;;;4.00;;
42146;SDS011;27815;43.410;11.852;2023-05-20T23:07:10;4.63;;;3.97;;
42146;SDS011;27815;43.410;11.852;2023-05-20T23:11:16;6.28;;;4.07;;
42146;SDS011;27815;43.410;11.852;2023-05-20T23:15:19;4.25;;;3.53;;
42146;SDS011;27815;43.410;11.852;2023-05-20T23:19:22;5.93;;;3.42;;
42146;SDS011;27815;43.410;11.852;2023-05-20T23:23:25;6.68;;;4.40;;
42146;SDS011;27815;43.410;11.852;2023-05-20T23:27:32;4.82;;;3.92;;
42146;SDS011;27815;43.410;11.852;2023-05-20T23:31:35;4.88;;;3.92;;
42146;SDS011;27815;43.410;11.852;2023-05-20T23:35:38;6.65;;;4.32;;
42146;SDS011;27815;43.410;11.852;2023-05-20T23:39:41;5.68;;;4.05;;
42146;SDS011;27815;43.410;11.852;2023-05-20T23:43:44;6.07;;;4.10;;
42146;SDS011;27815;43.410;11.852;2023-05-20T23:47:48;5.10;;;3.78;;
42146;SDS011;27815;43.410;11.852;2023-05-20T23:51:52;6.55;;;4.65;;
42146;SDS011;27815;43.410;11.852;2023-05-20T23:55:55;8.23;;;4.00;;
42146;SDS011;27815;43.410;11.852;2023-05-20T23:59:58;5.03;;;3.92;;
